Date,TemperatureHighF,TemperatureAvgF,TemperatureLowF,DewpointHighF,DewpointAvgF,DewpointLowF,HumidityHigh,HumidityAvg,HumidityLow,PressureMaxIn,PressureMinIn,WindSpeedMaxMPH,WindSpeedAvgMPH,GustSpeedMaxMPH,PrecipitationSumIn
2012-2-18,54,53,52,28,26,25,37,35,33,29.99,29.95,6,3,7,0.06
2012-2-19,52,42,34,41,34,28,92,77,40,30.11,29.75,15,6,18,0.69
2012-2-20,48,37,30,32,28,26,91,72,43,30.37,30.11,10,4,14,0.00
2012-2-21,59,47,34,40,34,26,87,62,45,30.21,29.96,20,6,31,0.00
2012-2-22,53,49,40,50,43,35,96,83,65,30.00,29.56,16,4,19,0.52
2012-2-23,76,60,44,58,48,43,97,70,33,29.68,29.45,14,5,18,0.01
2012-2-24,70,56,39,58,40,20,74,55,27,30.08,29.48,19,13,28,0.00
2012-2-25,48,39,32,25,19,12,66,46,25,30.40,30.08,19,8,26,0.00
2012-2-26,56,40,28,26,22,16,78,51,24,30.49,30.34,7,2,8,0.00
2012-2-27,52,47,38,38,38,26,80,70,58,30.42,30.39,1,0,0,0.00
2012-2-28,68,53,40,45,39,36,90,63,36,30.43,30.18,5,2,0,0.00
2012-2-29,70,61,51,60,54,45,93,80,65,30.17,29.77,17,8,0,0.25
2012-3-1,67,59,45,59,37,28,85,47,25,29.95,29.79,14,6,3,0.00
2012-3-2,72,55,43,60,45,34,91,71,56,29.89,29.58,19,4,39,0.31
2012-3-3,57,48,42,55,31,15,91,56,22,29.92,29.65,11,5,16,0.18
2012-3-4,45,40,34,25,21,18,63,48,36,30.02,29.85,18,6,22,0.00
2012-3-5,46,40,32,34,23,15,74,51,31,30.53,29.88,21,7,23,0.00
2012-3-6,61,41,29,33,25,19,77,55,24,30.61,30.43,7,2,10,0.00
2012-3-7,67,52,38,42,35,26,77,53,37,30.56,30.35,12,3,15,0.00
2012-3-8,65,55,45,53,47,39,94,76,54,30.36,30.10,8,2,10,0.86
2012-3-9,56,48,40,51,31,21,94,56,29,30.44,30.18,11,4,13,0.03
2012-3-10,60,47,38,32,24,15,65,42,19,30.53,30.39,11,4,14,0.00
2012-3-11,66,53,43,38,31,23,66,45,21,30.52,30.33,8,2,11,0.00
2012-3-12,67,58,49,54,47,35,82,67,56,30.35,30.19,8,1,12,0.00
2012-3-13,75,63,56,61,54,51,94,76,44,30.24,30.12,9,3,13,0.00
2012-3-14,78,62,49,58,50,42,95,68,28,30.29,30.17,9,2,9,0.00
2012-3-15,57,55,54,48,47,46,78,74,69,30.23,30.22,1,0,3,0.00
2012-3-16,74,60,56,60,56,54,97,88,56,30.30,30.13,11,2,0,0.31
2012-3-17,69,58,52,61,55,51,97,91,70,30.28,30.17,6,1,5,0.01
2012-3-18,75,64,58,63,58,56,96,84,57,30.32,30.13,18,3,18,0.98
2012-3-19,80,66,55,61,56,51,96,74,36,30.23,30.08,7,2,9,0.00
2012-3-20,83,67,57,60,54,47,88,65,29,30.20,30.05,20,2,25,0.00
2012-3-21,84,70,60,61,56,52,84,63,39,30.23,30.08,5,2,8,0.00
2012-3-22,80,68,59,61,56,52,84,68,45,30.19,30.08,15,3,18,0.00
2012-3-23,71,65,61,65,61,58,96,85,74,30.11,29.88,8,2,12,0.35
2012-3-24,67,58,52,60,52,45,97,83,47,29.91,29.82,14,3,21,0.41
2012-3-25,68,59,50,52,49,47,95,70,50,29.96,29.85,11,4,18,0.01
2012-3-26,74,64,54,55,50,45,86,62,36,30.15,29.96,12,4,19,0.00
2012-3-27,75,60,48,50,40,32,72,50,33,30.26,30.13,12,4,18,0.00
2012-3-28,77,65,53,59,53,48,89,67,49,30.16,29.94,15,5,24,0.00
2012-3-29,78,68,60,59,54,50,86,62,38,30.01,29.89,9,4,14,0.00
2012-3-30,76,63,55,62,57,54,96,82,50,29.99,29.84,14,2,20,0.00
2012-3-31,72,64,59,60,58,56,95,82,61,29.88,29.79,9,4,12,0.10
2012-4-1,72,59,50,60,55,49,97,88,57,29.92,29.79,17,2,26,0.23
2012-4-2,78,67,55,68,61,54,97,82,59,29.91,29.76,9,3,13,0.05
2012-4-3,82,65,57,65,60,54,96,84,54,29.98,29.83,16,3,27,0.50
2012-4-4,78,65,56,65,60,56,97,84,51,29.92,29.68,11,3,13,0.11
2012-4-5,71,63,54,64,59,52,96,88,67,29.78,29.64,18,4,23,0.48
2012-4-6,66,57,51,52,39,30,93,56,27,30.15,29.78,12,5,18,0.04
2012-4-7,70,54,42,40,27,-100,63,41,26,30.30,30.15,9,-40,11,0.00
2012-4-8,71,59,48,47,41,31,85,56,33,30.22,30.09,11,3,14,0.00
2012-4-9,70,57,43,39,29,-100,68,39,22,30.14,29.96,13,-32,19,0.00
2012-4-10,66,58,50,43,32,20,62,39,19,30.04,29.90,17,7,28,0.00
2012-4-11,54,47,39,27,23,19,58,40,30,30.25,30.04,14,5,21,0.00
2012-4-12,42,40,37,27,26,25,65,55,50,30.26,30.25,5,3,11,0.00
2012-4-14,71,69,67,47,46,45,49,44,41,30.22,30.20,6,4,15,0.00
2012-4-15,69,67,65,56,55,55,71,67,63,30.09,30.08,1,0,15,0.00
2012-4-19,73,64,55,56,51,43,91,65,38,30.11,29.95,7,2,10,0.00
2012-4-20,74,63,52,58,54,51,96,75,48,29.98,29.81,10,2,15,0.00
2012-4-21,69,60,54,60,54,49,95,82,61,29.84,29.77,11,3,17,0.00
2012-4-22,54,49,44,49,42,35,87,77,65,29.85,29.72,12,5,20,0.00
2012-4-23,56,47,42,35,28,19,69,49,25,29.85,29.76,17,7,30,0.00
2012-4-24,61,51,41,46,35,26,85,55,36,29.91,29.82,18,8,28,0.02
2012-4-25,75,59,49,60,52,46,95,80,54,29.94,29.80,10,4,17,0.20
2012-4-26,70,66,58,64,60,55,92,82,66,29.90,29.75,17,7,32,0.30
2012-4-27,75,64,57,63,52,39,93,68,32,30.09,29.90,6,3,10,0.00
2012-4-28,81,68,54,64,54,47,82,64,43,30.10,29.96,13,4,20,0.00
2012-4-29,83,69,57,63,59,54,90,71,43,30.15,30.06,7,2,8,0.00
2012-4-30,83,71,59,66,60,56,96,73,41,30.16,30.02,12,2,16,0.00
2012-5-1,84,73,61,65,61,58,92,68,42,30.11,29.98,12,3,18,0.00
2012-5-2,88,74,63,68,63,59,94,71,38,30.13,30.02,9,2,10,0.00
2012-5-3,83,74,63,69,64,60,95,74,47,30.15,30.02,14,2,16,0.00
2012-5-4,81,72,63,67,63,60,94,76,57,30.11,29.93,8,3,24,0.39
2012-5-5,79,70,64,67,63,61,93,79,60,30.02,29.90,9,2,12,0.30
2012-5-6,83,72,62,67,63,60,97,76,49,30.03,29.90,8,2,9,0.00
2012-5-7,81,71,62,67,63,60,93,79,53,29.98,29.83,13,2,19,0.01
2012-5-8,77,69,64,66,64,62,94,83,64,29.90,29.83,12,4,17,0.10
2012-5-9,69,64,60,62,56,44,93,75,44,29.89,29.78,8,2,10,0.14
2012-5-10,70,61,50,49,43,39,79,54,35,30.03,29.85,8,3,14,0.00
2012-5-11,72,60,48,51,45,39,90,60,34,30.20,30.03,9,3,13,0.00
2012-5-12,58,57,56,52,51,49,85,80,73,30.21,30.20,4,1,6,0.00
2012-5-13,64,63,62,60,60,58,93,89,81,30.11,30.02,8,5,12,0.34
2012-5-14,76,66,60,64,61,58,96,85,62,30.02,29.91,10,3,15,1.36
2012-5-15,76,67,58,63,59,56,94,78,54,30.01,29.94,7,2,8,0.00
2012-5-16,80,67,57,63,57,53,97,74,42,30.03,29.93,6,2,8,0.00
2012-5-17,80,69,58,64,58,54,97,72,42,30.03,29.93,11,3,15,0.00
2012-5-18,82,71,63,64,60,58,84,69,45,30.08,29.98,12,4,13,0.00
2012-5-19,82,70,61,65,61,54,96,74,39,30.15,30.04,6,2,8,0.00
2012-5-20,82,71,64,63,59,50,92,67,40,30.16,30.02,7,2,10,0.00
2012-5-21,80,67,60,66,61,57,96,83,49,30.04,29.91,17,3,26,0.08
2012-5-22,74,66,60,64,61,59,95,86,67,29.95,29.84,7,2,8,0.06
2012-5-23,75,67,62,66,63,61,97,87,68,29.91,29.85,8,2,13,0.12
2012-5-24,84,71,62,66,61,56,96,75,42,30.01,29.89,8,3,10,0.00
2012-5-25,89,75,63,68,63,59,90,69,40,30.12,29.99,6,2,8,0.00
2012-5-26,88,76,66,71,66,62,94,73,45,30.17,30.05,4,1,5,0.00
2012-5-27,88,78,70,72,67,63,95,71,45,30.10,29.97,7,3,12,0.00
2012-5-28,90,80,71,68,65,59,82,63,40,30.02,29.88,9,4,12,0.00
2012-5-29,88,76,68,69,66,63,90,73,49,29.92,29.80,11,3,17,0.00
2012-5-30,86,74,65,68,64,46,96,74,25,29.87,29.81,8,2,11,0.00
2012-5-31,87,80,73,65,62,52,69,55,34,29.88,29.79,9,4,9,0.00
2012-6-12,83,75,69,72,69,65,96,82,59,29.98,29.89,9,3,0,0.09
2012-6-13,84,75,65,66,62,56,92,67,42,30.01,29.94,8,3,0,0.00
2012-6-14,84,75,66,70,63,57,76,66,53,30.06,29.99,8,3,0,0.00
2012-6-15,85,77,71,67,63,60,78,64,47,30.18,30.04,9,3,0,0.00
2012-6-16,84,75,68,67,63,58,86,67,54,30.24,30.07,6,3,0,0.00
2012-6-17,81,73,67,68,66,64,91,81,59,30.14,29.97,6,1,0,0.00
2012-6-18,71,68,66,67,66,64,96,94,89,30.01,29.98,0,0,2,0.00
2012-6-24,92,85,73,64,62,58,70,48,32,29.90,29.85,6,2,0,0.00
2012-6-25,90,79,68,69,64,60,82,61,39,29.86,29.73,6,3,0,0.00
2012-6-29,101,94,79,66,63,61,64,38,27,29.86,29.79,6,3,0,0.00
2012-6-30,101,83,75,70,67,64,76,61,31,29.91,29.83,6,3,5,0.00
2012-7-1,98,87,75,73,69,65,80,57,36,29.98,29.83,10,2,0,0.00
2012-7-2,91,82,70,70,68,64,90,64,43,30.08,29.92,14,5,0,0.00
2012-7-3,93,77,72,67,64,57,80,65,34,30.04,29.91,11,3,16,0.00
2012-7-4,94,80,69,72,68,64,88,68,42,30.04,29.91,13,3,14,0.00
2012-7-5,97,80,68,73,69,65,97,72,38,30.10,29.89,31,3,37,0.00
2012-7-6,92,81,67,75,70,64,96,70,47,30.05,29.94,8,3,10,0.00
2012-7-7,97,84,74,76,72,69,93,71,44,30.03,29.90,4,1,4,0.00
2012-7-8,94,84,78,75,72,68,82,68,48,30.01,29.83,12,4,20,0.00
2012-7-9,84,78,72,74,70,67,92,78,66,29.98,29.89,10,3,19,0.00
2012-7-10,82,74,70,72,70,67,95,88,65,30.04,29.93,12,3,17,0.00
2012-7-11,73,71,71,68,68,68,91,89,86,30.03,30.00,9,4,15,0.00
2012-7-12,73,71,69,70,68,65,94,89,85,30.12,30.05,9,6,0,0.00
2012-7-13,82,74,69,74,70,67,95,87,67,30.13,30.07,12,3,19,0.00
2012-7-14,89,76,71,74,71,69,95,85,54,30.18,30.07,9,2,13,0.00
2012-7-15,90,77,70,74,71,68,96,83,54,30.20,30.06,17,2,28,0.00
2012-7-16,85,77,72,75,72,67,97,86,67,30.11,29.97,11,2,13,0.00
2012-7-17,82,76,71,75,72,68,97,90,76,30.05,29.93,7,1,12,0.00
2012-7-18,84,75,70,75,71,68,98,88,71,30.04,29.93,10,2,12,0.00
2012-7-19,90,78,68,75,71,65,96,81,57,30.06,29.90,17,4,20,0.00
2012-7-20,85,74,68,73,70,67,96,86,63,29.99,29.90,8,3,13,0.00
2012-7-21,87,77,69,74,71,68,97,83,63,30.06,29.94,7,2,9,0.00
2012-7-22,88,79,73,75,72,68,96,79,53,30.16,30.06,9,3,13,0.00
2012-7-23,88,79,71,76,72,69,97,81,59,30.19,30.04,9,2,18,0.00
2012-7-24,93,82,74,76,72,69,93,75,48,30.07,29.90,9,3,12,0.00
2012-7-25,92,82,73,77,72,70,91,75,53,30.00,29.87,12,3,16,0.00
2012-7-26,91,83,73,76,72,70,93,72,53,29.94,29.79,11,4,18,0.00
2012-7-27,87,81,73,76,72,69,90,76,61,29.94,29.84,7,3,9,0.00
2012-7-28,89,79,68,72,66,60,92,67,51,30.02,29.94,15,3,21,0.00
2012-7-29,87,78,68,70,65,60,89,68,41,30.05,29.95,7,2,10,0.00
2012-7-30,90,79,70,70,66,61,85,68,39,30.00,29.88,6,2,9,0.00
2012-7-31,88,78,68,73,70,66,94,77,55,29.95,29.82,15,2,21,0.00
2012-8-1,88,73,65,76,69,63,97,88,66,29.96,29.83,16,2,32,0.00
2012-8-2,88,77,67,75,69,65,96,78,52,29.93,29.84,5,2,9,0.00
2012-8-3,84,76,71,75,71,68,93,84,73,30.01,29.86,13,3,14,0.00
2012-8-4,87,77,71,74,71,68,93,82,59,30.12,29.99,10,3,13,0.00
2012-8-5,87,76,72,75,72,69,97,86,63,30.17,30.07,15,3,17,0.00
2012-8-6,81,75,72,74,71,70,96,88,72,30.14,30.00,5,2,7,0.00
2012-8-7,74,72,71,72,71,70,97,95,93,30.03,29.98,1,0,0,0.00
2012-8-11,78,78,78,57,56,56,49,48,47,29.93,29.93,3,3,4,0.00
2012-8-12,82,75,65,61,58,54,80,58,40,30.04,29.98,4,1,8,0.00
2012-8-13,82,71,63,68,62,58,96,75,46,30.05,29.93,8,2,9,0.00
2012-8-14,82,72,65,71,66,61,93,82,69,29.98,29.87,6,2,9,0.00
2012-8-15,82,72,66,71,65,61,96,80,53,30.01,29.90,11,3,17,0.00
2012-8-16,86,73,63,68,63,54,97,75,37,30.07,29.91,6,2,8,0.00
2012-8-17,80,72,66,68,66,63,95,81,65,30.01,29.88,10,2,13,0.00
2012-8-18,83,74,67,66,63,57,90,71,42,29.95,29.83,7,2,9,0.01
2012-8-19,78,71,66,67,64,60,94,80,65,29.89,29.83,11,2,11,0.04
2012-8-20,80,70,60,64,58,52,97,70,39,29.99,29.87,9,2,11,0.00
2012-8-21,83,70,59,63,57,50,94,67,32,30.08,29.99,6,2,8,0.00
2012-8-22,86,71,60,64,57,48,94,65,31,30.14,30.04,6,1,8,0.00
2012-8-23,87,74,62,65,61,55,91,67,35,30.16,30.05,5,2,7,0.00
2012-8-24,88,75,65,67,64,58,92,70,38,30.16,30.02,6,2,8,0.00
2012-8-25,89,74,65,67,63,58,90,71,38,30.16,30.05,18,3,25,0.00
2012-8-26,88,75,65,70,65,61,97,75,43,30.18,30.04,6,2,8,0.00
2012-8-27,90,76,67,68,64,50,93,68,27,30.14,29.96,6,2,7,0.00
2012-8-28,90,78,66,71,66,58,95,70,37,30.03,29.89,8,3,12,0.00
2012-8-29,88,79,71,70,67,63,90,68,43,30.00,29.89,7,2,9,0.00
2012-8-30,86,77,69,72,67,62,90,72,58,30.12,29.95,8,2,10,0.00
2012-8-31,89,79,70,74,70,66,97,77,50,30.22,30.09,9,2,13,0.00
2012-9-1,90,80,70,74,70,68,97,75,50,30.17,30.00,9,3,13,0.00
2012-9-2,90,77,71,73,70,67,93,80,50,30.05,29.86,17,3,22,0.35
2012-9-3,82,73,69,74,70,68,96,90,72,29.95,29.87,6,2,11,0.30
2012-9-4,83,76,72,74,71,70,96,86,67,29.92,29.84,8,2,12,0.01
2012-9-5,87,78,73,73,72,70,95,81,58,29.93,29.80,9,4,13,0.08
2012-9-6,87,76,69,72,69,67,96,81,56,29.97,29.83,6,2,10,0.02
2012-9-7,90,77,68,71,66,59,98,74,36,29.98,29.78,8,2,13,0.00
2012-9-8,79,69,57,69,64,55,92,84,68,29.95,29.74,12,3,16,0.29
2012-9-9,77,65,55,61,55,52,97,75,44,30.06,29.92,6,2,9,0.01
2012-9-10,79,67,56,62,56,50,93,69,38,30.17,30.05,6,2,7,0.00
2012-9-11,81,69,58,60,56,52,85,65,41,30.27,30.16,8,3,16,0.00
2012-9-12,81,72,64,64,60,56,87,69,45,30.34,30.20,7,3,9,0.00
2012-9-13,79,70,64,61,59,56,85,68,47,30.34,30.20,9,3,13,0.00
2012-9-14,81,70,60,64,60,57,94,71,45,30.26,30.16,7,2,12,0.00
2012-9-15,82,70,60,64,61,58,97,74,49,30.23,30.09,9,3,10,0.00
2012-9-16,80,71,65,65,62,61,89,75,55,30.12,30.00,6,1,6,0.00
2012-9-17,70,68,66,67,65,63,96,91,80,30.04,29.75,10,3,13,1.68
2012-9-18,70,66,59,67,63,53,97,90,74,29.99,29.65,10,3,18,3.56
2012-9-19,71,60,52,54,51,48,92,72,46,30.15,29.99,10,3,13,0.00
2012-9-20,77,64,53,61,56,50,94,76,54,30.15,30.02,10,2,16,0.00
2012-9-21,78,67,58,64,59,55,97,77,46,30.09,29.93,11,2,15,0.00
2012-9-22,79,70,57,64,56,44,80,64,41,30.08,29.92,15,7,22,0.00
2012-9-23,70,60,50,50,40,25,82,54,20,30.23,30.07,8,2,13,0.00
2012-9-24,71,56,46,48,41,35,86,59,30,30.29,30.15,11,2,14,0.00
2012-9-25,74,60,50,58,52,47,94,75,48,30.23,30.12,7,2,10,0.00
2012-9-26,80,67,57,62,58,54,96,77,43,30.24,30.13,9,2,13,0.00
2012-9-27,81,68,59,65,62,58,97,81,51,30.23,30.09,7,2,10,0.00
2012-9-28,78,68,62,68,64,61,97,88,68,30.12,30.00,7,1,11,0.13
2012-9-29,76,68,61,66,62,56,95,84,64,30.03,29.89,11,2,13,0.00
2012-9-30,71,63,54,58,55,49,96,77,45,29.95,29.84,6,2,10,0.00
2012-10-1,70,64,59,64,59,52,94,85,71,29.86,29.65,15,8,19,0.26
2012-10-2,76,69,64,69,64,60,96,83,62,29.95,29.68,12,5,15,0.39
2012-10-3,75,67,62,61,60,57,90,78,57,30.19,29.95,8,3,10,0.00
2012-10-4,76,65,56,60,57,52,96,77,46,30.30,30.19,6,2,10,0.00
2012-10-5,77,64,57,61,58,55,97,81,51,30.24,30.01,7,2,9,0.00
2012-10-6,62,58,54,59,53,46,95,85,75,30.09,29.96,9,2,12,0.01
2012-10-7,54,50,44,48,45,39,92,81,58,30.19,30.01,12,2,12,0.16
2012-10-8,51,48,45,47,45,42,93,88,83,30.26,30.15,11,4,12,0.31
2012-10-9,57,52,47,49,47,45,94,83,66,30.21,30.08,5,1,7,0.00
2012-10-10,61,53,46,54,49,41,97,87,68,30.24,30.07,10,3,13,0.00
2012-10-11,67,53,42,48,42,38,87,67,35,30.33,30.23,7,2,10,0.00
2012-10-12,66,59,51,54,51,45,89,75,57,30.32,30.22,8,1,10,0.00
2012-10-13,72,60,49,59,52,45,92,76,57,30.36,30.21,7,2,10,0.00
2012-10-14,73,63,52,62,55,48,89,76,62,30.23,29.92,8,2,10,0.00
2012-10-15,68,62,51,62,52,42,95,73,43,29.96,29.87,13,5,19,0.58
2012-10-16,67,55,45,51,45,42,95,72,42,30.04,29.89,7,2,10,0.00
2012-10-17,52,50,49,49,48,46,96,93,85,29.97,29.93,5,2,6,0.00
2012-10-28,47,45,43,44,41,38,90,85,81,29.98,29.90,8,5,15,0.00
2012-10-29,43,34,38,39,11,-100,87,66,72,29.98,29.78,13,-177,23,0.00
2012-10-30,42,40,39,37,34,30,91,80,64,29.83,29.64,16,9,23,0.00
2012-10-31,55,45,39,36,29,-100,90,61,42,29.90,29.79,13,-22,18,0.00
2012-11-1,56,47,40,34,26,15,75,48,20,30.00,29.90,12,6,18,0.00
2012-11-2,62,53,44,42,32,23,55,45,32,30.06,29.94,12,5,19,0.00
2012-11-3,63,50,38,42,36,31,93,63,36,30.17,29.98,6,2,7,0.00
2012-11-4,59,50,40,44,40,36,84,67,50,30.12,30.00,12,2,18,0.00
2012-11-5,54,39,35,41,17,-100,91,59,43,30.16,30.04,6,-132,8,0.00
2012-11-6,47,45,43,42,38,31,90,76,59,30.07,29.95,9,3,12,0.00
2012-11-7,47,45,41,42,41,37,94,87,78,30.10,29.90,5,2,8,0.00
2012-11-8,56,44,34,42,36,30,96,73,44,30.27,30.10,6,2,9,0.00
2012-11-9,62,40,36,42,16,-100,97,60,39,30.37,30.24,5,-153,7,0.00
2012-11-10,69,46,40,44,25,-100,87,58,33,30.41,30.27,6,-102,7,0.00
2012-11-11,67,48,42,47,26,-100,89,59,36,30.42,30.26,5,-111,6,0.00
2012-11-12,67,53,41,58,48,36,94,85,64,30.41,30.10,15,2,20,0.00
2012-11-13,48,33,32,36,5,-100,84,52,46,30.49,30.41,9,-184,15,0.00
2012-11-14,51,37,36,35,12,-100,81,54,49,30.46,30.32,11,-143,15,0.00
2012-11-15,56,38,37,38,13,-100,84,54,47,30.37,30.26,5,-160,7,0.00
2012-11-16,56,39,36,37,13,-100,94,54,38,30.42,30.31,8,-152,11,0.00
2012-11-17,60,42,41,35,11,-100,71,42,27,30.50,30.39,9,-146,13,0.00
2012-11-18,59,43,44,38,15,-100,74,45,41,30.49,30.37,15,-128,18,0.00
2012-11-19,61,43,41,44,20,-100,93,60,51,30.38,30.22,7,-148,9,0.00
2012-11-20,63,45,42,48,21,-100,96,61,41,30.23,30.09,6,-147,8,0.00
2012-11-21,65,53,45,46,42,38,85,68,44,30.22,30.12,4,1,5,0.00
2012-11-22,65,50,40,44,40,37,95,73,40,30.29,30.17,6,1,7,0.00
2012-11-23,58,47,40,48,41,31,97,79,55,30.19,30.04,13,4,17,0.00
2012-11-24,42,36,28,31,24,20,76,62,45,30.24,30.14,8,4,13,0.00
2012-11-25,52,38,26,29,21,15,90,56,25,30.24,30.09,11,2,15,0.00
2012-11-26,58,45,34,41,32,22,91,61,33,30.27,30.13,7,1,8,0.00
2012-11-27,46,44,40,43,40,34,94,87,78,30.33,30.14,7,3,9,0.00
2012-11-28,48,40,32,35,32,26,90,73,51,30.48,30.31,6,2,9,0.00
2012-11-29,54,39,29,36,32,27,94,76,46,30.50,30.36,5,1,6,0.00
2012-11-30,58,45,32,44,38,29,90,77,58,30.44,30.28,12,2,18,0.00
2012-12-1,63,50,41,48,43,38,92,79,56,30.42,30.29,8,2,10,0.00
2012-12-2,68,53,42,54,47,40,96,81,56,30.36,30.23,14,3,20,0.00
2012-12-3,68,57,49,53,50,46,93,78,55,30.33,30.20,10,1,12,0.00
2012-12-4,69,58,47,55,50,46,96,78,57,30.30,30.16,10,2,15,0.00
2012-12-5,62,53,43,57,45,36,92,74,47,30.30,30.15,10,4,19,0.00
2012-12-6,51,47,44,44,39,34,84,73,66,30.22,30.12,7,4,10,0.00
2012-12-7,62,51,43,51,46,41,94,83,65,30.13,29.97,5,1,6,0.00
2012-12-8,68,58,51,56,52,49,94,81,60,30.03,29.94,12,3,15,0.00
2012-12-9,69,59,54,58,54,52,97,85,64,30.05,29.89,13,2,16,0.00
2012-12-10,58,53,41,56,51,38,97,93,85,29.92,29.66,13,3,23,0.00
2012-12-11,41,36,33,39,31,28,91,82,74,30.26,29.92,8,3,12,0.00
2012-12-12,45,38,33,31,29,27,86,73,51,30.38,30.26,9,4,14,0.00
2012-12-13,52,40,31,38,33,28,93,78,57,30.44,30.33,6,1,11,0.00
2012-12-14,55,40,32,42,36,31,97,86,52,30.45,30.26,5,1,7,0.00
2012-12-15,55,46,39,45,40,36,92,80,62,30.26,30.01,4,1,7,0.00
2012-12-16,58,51,47,54,49,45,97,93,84,30.04,29.82,11,3,15,0.00
2012-12-17,56,50,47,54,49,46,97,95,79,29.84,29.64,13,1,20,0.00
2012-12-18,52,46,37,48,39,34,97,78,52,29.98,29.70,11,4,15,0.00
2012-12-19,57,48,37,46,39,34,92,71,58,30.13,29.98,10,2,12,0.00
2012-12-20,51,46,36,49,41,28,96,84,62,30.07,29.57,26,6,35,0.00
2012-12-21,39,35,31,31,25,17,90,68,51,30.19,29.77,19,13,27,0.00
2012-12-22,41,33,24,22,19,17,74,57,42,30.37,30.18,12,4,17,0.00
2012-12-23,48,36,26,41,30,19,95,79,48,30.24,30.07,11,2,13,0.00
2012-12-24,47,44,41,46,43,40,97,96,95,30.07,29.85,12,1,14,0.00
2012-12-25,48,46,43,44,43,42,97,92,84,30.08,29.88,14,4,20,0.00
2012-12-26,50,43,33,47,39,29,95,88,78,29.98,29.45,20,12,29,0.00
2012-12-27,34,33,32,30,28,27,89,83,78,30.20,29.97,12,4,15,0.00
2012-12-28,40,37,32,36,32,28,89,80,74,30.19,29.81,16,5,18,0.56
2012-12-29,41,37,31,39,33,23,94,85,71,30.27,29.75,14,8,23,0.08
2012-12-30,39,31,27,25,22,19,86,71,51,30.56,30.27,12,3,24,0.00
2012-12-31,40,34,27,32,28,24,91,79,63,30.46,30.17,4,1,6,0.00
2013-1-1,44,40,36,43,38,31,97,92,76,30.17,30.01,8,2,12,0.76